Wetterdaten: Woche 29.06.15 - 05.07.15 (KW27)
Datum Zeit Temp. A. Feuchte A. Luftdruck Regen Wind Richtung Sonnenschein ET UV Solar Taupunkt Windchill Windben Empfang
29.06.2015 00:00 13,1 C 92 % 1021,6 hPa 0,0 l/m 0,0 km/h (0 Bft) N 0,00 h 0,000 mm 0,0 UV-I 0 W/m 11,8 C 13,1 C 0,0 km/h (0 Bft) 0,00 %
29.06.2015 01:00 12,4 C 93 % 1021,2 hPa 0,0 l/m 0,0 km/h (0 Bft) N 0,00 h 0,000 mm 0,0 UV-I 0 W/m 11,3 C 12,4 C 0,0 km/h (0 Bft) 0,00 %
29.06.2015 02:00 12,0 C 94 % 1021,3 hPa 0,0 l/m 0,1 km/h (0 Bft) O 0,00 h 0,000 mm 0,0 UV-I 0 W/m 11,0 C 12,0 C 0,3 km/h (0 Bft) 0,00 %
29.06.2015 03:00 12,1 C 94 % 1021,3 hPa 0,0 l/m 0,0 km/h (0 Bft) N 0,00 h 0,000 mm 0,0 UV-I 0 W/m 11,2 C 12,1 C 0,0 km/h (0 Bft) 0,00 %
29.06.2015 04:00 12,0 C 94 % 1021,2 hPa 0,0 l/m 0,0 km/h (0 Bft) N 0,00 h 0,000 mm 0,0 UV-I 0 W/m 11,1 C 12,0 C 0,0 km/h (0 Bft) 0,00 %
29.06.2015 05:00 12,0 C 95 % 1021,4 hPa 0,0 l/m 0,0 km/h (0 Bft) N 0,00 h 0,000 mm 0,0 UV-I 21 W/m 11,2 C 12,0 C 0,0 km/h (0 Bft) 0,00 %
29.06.2015 06:00 12,7 C 94 % 1021,6 hPa 0,0 l/m 0,0 km/h (0 Bft) N 0,00 h 0,000 mm 1,0 UV-I 69 W/m 11,6 C 12,7 C 0,0 km/h (0 Bft) 0,00 %
29.06.2015 07:00 14,0 C 88 % 1021,7 hPa 0,0 l/m 0,0 km/h (0 Bft) N 0,00 h 0,000 mm 1,0 UV-I 127 W/m 12,1 C 14,0 C 0,0 km/h (0 Bft) 0,00 %
29.06.2015 08:00 15,4 C 82 % 1021,8 hPa 0,0 l/m 0,0 km/h (0 Bft) N 0,00 h 0,000 mm 1,0 UV-I 125 W/m 12,2 C 15,4 C 0,0 km/h (0 Bft) 0,00 %
29.06.2015 09:00 16,2 C 79 % 1022,0 hPa 0,0 l/m 0,0 km/h (0 Bft) N 0,00 h 0,000 mm 1,1 UV-I 238 W/m 12,5 C 16,2 C 0,0 km/h (0 Bft) 0,00 %
29.06.2015 10:00 18,6 C 68 % 1021,6 hPa 0,0 l/m 0,4 km/h (0 Bft) NO 0,83 h 0,000 mm 2,9 UV-I 597 W/m 12,4 C 18,6 C 1,3 km/h (1 Bft) 0,00 %
29.06.2015 11:00 22,1 C 55 % 1020,7 hPa 0,0 l/m 0,4 km/h (0 Bft) W-NW 1,00 h 0,000 mm 3,9 UV-I 674 W/m 12,6 C 22,1 C 1,0 km/h (0 Bft) 0,00 %
29.06.2015 12:00 22,9 C 49 % 1020,3 hPa 0,0 l/m 0,4 km/h (0 Bft) N-NW 0,83 h 0,000 mm 4,2 UV-I 708 W/m 11,6 C 22,9 C 1,3 km/h (1 Bft) 0,00 %
29.06.2015 13:00 23,4 C 48 % 1019,8 hPa 0,0 l/m 0,7 km/h (0 Bft) W-NW 1,00 h 0,000 mm 4,9 UV-I 822 W/m 11,6 C 23,4 C 1,7 km/h (1 Bft) 0,00 %
29.06.2015 14:00 24,2 C 43 % 1019,2 hPa 0,0 l/m 0,9 km/h (0 Bft) N-NO 0,92 h 0,000 mm 4,3 UV-I 775 W/m 10,8 C 24,2 C 3,3 km/h (1 Bft) 0,00 %
29.06.2015 15:00 25,3 C 39 % 1018,5 hPa 0,0 l/m 0,8 km/h (0 Bft) W-SW 1,00 h 0,000 mm 4,4 UV-I 957 W/m 10,5 C 25,3 C 2,0 km/h (1 Bft) 0,00 %
29.06.2015 16:00 25,7 C 40 % 1018,2 hPa 0,0 l/m 0,4 km/h (0 Bft) W-NW 1,00 h 0,000 mm 3,3 UV-I 800 W/m 10,9 C 25,7 C 1,7 km/h (1 Bft) 0,00 %
29.06.2015 17:00 25,9 C 40 % 1017,7 hPa 0,0 l/m 0,7 km/h (0 Bft) NW 0,92 h 0,000 mm 1,9 UV-I 726 W/m 11,1 C 25,9 C 2,3 km/h (1 Bft) 0,00 %
29.06.2015 18:00 25,5 C 41 % 1017,7 hPa 0,0 l/m 0,6 km/h (0 Bft) N 1,00 h 0,000 mm 1,0 UV-I 618 W/m 11,1 C 25,5 C 2,0 km/h (1 Bft) 0,00 %
29.06.2015 19:00 24,2 C 45 % 1018,1 hPa 0,0 l/m 1,0 km/h (0 Bft) N-NW 1,00 h 0,000 mm 1,0 UV-I 315 W/m 11,3 C 24,2 C 2,3 km/h (1 Bft) 0,00 %
29.06.2015 20:00 23,6 C 48 % 1018,6 hPa 0,0 l/m 0,7 km/h (0 Bft) O-NO 0,25 h 0,000 mm 0,0 UV-I 50 W/m 12,0 C 23,6 C 1,3 km/h (1 Bft) 0,00 %
29.06.2015 21:00 18,7 C 67 % 1020,0 hPa 0,0 l/m 0,4 km/h (0 Bft) SO 0,00 h 0,000 mm 0,0 UV-I 0 W/m 12,3 C 18,7 C 1,0 km/h (0 Bft) 0,00 %
29.06.2015 22:00 17,4 C 73 % 1020,7 hPa 0,0 l/m 0,4 km/h (0 Bft) O-SO 0,00 h 0,000 mm 0,0 UV-I 0 W/m 12,4 C 17,4 C 1,0 km/h (0 Bft) 0,00 %
29.06.2015 23:00 15,7 C 82 % 1021,1 hPa 0,0 l/m 0,0 km/h (0 Bft) N 0,00 h 0,000 mm 0,0 UV-I 0 W/m 12,6 C 15,7 C 0,0 km/h (0 Bft) 0,00 %
30.06.2015 00:00 14,5 C 89 % 1021,5 hPa 0,0 l/m 0,0 km/h (0 Bft) N 0,00 h 0,000 mm 0,0 UV-I 0 W/m 12,6 C 14,5 C 0,0 km/h (0 Bft) 0,00 %
30.06.2015 01:00 14,3 C 90 % 1021,6 hPa 0,0 l/m 0,1 km/h (0 Bft) O 0,00 h 0,000 mm 0,0 UV-I 0 W/m 12,7 C 14,3 C 0,3 km/h (0 Bft) 0,00 %
30.06.2015 02:00 14,3 C 90 % 1021,5 hPa 0,0 l/m 0,1 km/h (0 Bft) N 0,00 h 0,000 mm 0,0 UV-I 0 W/m 12,6 C 14,3 C 0,3 km/h (0 Bft) 0,00 %
30.06.2015 03:00 14,3 C 90 % 1021,0 hPa 0,0 l/m 0,1 km/h (0 Bft) N 0,00 h 0,000 mm 0,0 UV-I 0 W/m 12,7 C 14,3 C 0,3 km/h (0 Bft) 0,00 %
30.06.2015 04:00 13,3 C 94 % 1020,8 hPa 0,0 l/m 0,0 km/h (0 Bft) N 0,00 h 0,000 mm 0,0 UV-I 0 W/m 12,3 C 13,3 C 0,0 km/h (0 Bft) 0,00 %
30.06.2015 05:00 12,6 C 96 % 1021,4 hPa 0,0 l/m 0,0 km/h (0 Bft) N 0,25 h 0,000 mm 0,0 UV-I 30 W/m 11,9 C 12,6 C 0,0 km/h (0 Bft) 0,00 %
30.06.2015 06:00 15,5 C 85 % 1021,2 hPa 0,0 l/m 0,0 km/h (0 Bft) N 0,92 h 0,000 mm 1,0 UV-I 186 W/m 12,9 C 15,5 C 0,0 km/h (0 Bft) 0,00 %
30.06.2015 07:00 18,3 C 73 % 1020,8 hPa 0,0 l/m 0,0 km/h (0 Bft) N 1,00 h 0,000 mm 1,0 UV-I 314 W/m 13,3 C 18,3 C 0,0 km/h (0 Bft) 0,00 %
30.06.2015 08:00 20,0 C 66 % 1020,4 hPa 0,0 l/m 0,1 km/h (0 Bft) N 0,92 h 0,000 mm 1,8 UV-I 420 W/m 13,4 C 20,0 C 1,0 km/h (0 Bft) 0,00 %
30.06.2015 09:00 23,1 C 56 % 1020,0 hPa 0,0 l/m 0,0 km/h (0 Bft) N 1,00 h 0,000 mm 2,3 UV-I 569 W/m 13,9 C 23,1 C 0,0 km/h (0 Bft) 0,00 %
30.06.2015 10:00 25,1 C 51 % 1019,7 hPa 0,0 l/m 0,3 km/h (0 Bft) O 1,00 h 0,000 mm 3,2 UV-I 688 W/m 14,1 C 25,1 C 0,7 km/h (0 Bft) 0,00 %
30.06.2015 11:00 25,7 C 48 % 1019,4 hPa 0,0 l/m 0,4 km/h (0 Bft) N-NW 1,00 h 0,000 mm 4,1 UV-I 762 W/m 13,8 C 25,7 C 1,0 km/h (0 Bft) 0,00 %
30.06.2015 12:00 26,7 C 44 % 1019,0 hPa 0,0 l/m 1,5 km/h (1 Bft) W-NW 1,00 h 0,000 mm 5,1 UV-I 856 W/m 13,2 C 26,7 C 3,0 km/h (1 Bft) 0,00 %
30.06.2015 13:00 27,6 C 40 % 1018,4 hPa 0,0 l/m 1,9 km/h (1 Bft) W-NW 1,00 h 0,000 mm 5,1 UV-I 986 W/m 12,5 C 27,6 C 3,0 km/h (1 Bft) 0,00 %
30.06.2015 14:00 28,6 C 39 % 1017,7 hPa 0,0 l/m 0,9 km/h (0 Bft) N 0,50 h 0,000 mm 2,9 UV-I 567 W/m 13,1 C 28,6 C 2,0 km/h (1 Bft) 0,00 %
30.06.2015 15:00 26,1 C 43 % 1017,8 hPa 0,0 l/m 0,8 km/h (0 Bft) NO 0,08 h 0,000 mm 1,1 UV-I 293 W/m 12,4 C 26,1 C 2,0 km/h (1 Bft) 0,00 %
30.06.2015 16:00 25,3 C 50 % 1017,8 hPa 0,0 l/m 2,5 km/h (1 Bft) O 0,25 h 0,000 mm 1,6 UV-I 308 W/m 14,1 C 25,3 C 4,6 km/h (1 Bft) 0,00 %
30.06.2015 17:00 24,4 C 52 % 1017,6 hPa 0,0 l/m 2,0 km/h (1 Bft) NO 0,00 h 0,000 mm 1,0 UV-I 238 W/m 13,9 C 24,4 C 4,0 km/h (1 Bft) 0,00 %
30.06.2015 18:00 24,4 C 53 % 1017,4 hPa 0,0 l/m 3,1 km/h (1 Bft) O-SO 1,00 h 0,000 mm 1,0 UV-I 565 W/m 14,2 C 24,4 C 5,6 km/h (1 Bft) 0,00 %
30.06.2015 19:00 24,8 C 49 % 1017,3 hPa 0,0 l/m 2,8 km/h (1 Bft) O 1,00 h 0,000 mm 1,0 UV-I 266 W/m 13,4 C 24,7 C 4,3 km/h (1 Bft) 0,00 %
30.06.2015 20:00 23,1 C 55 % 1017,8 hPa 0,0 l/m 0,3 km/h (0 Bft) O 0,42 h 0,000 mm 0,0 UV-I 39 W/m 13,5 C 23,1 C 1,7 km/h (1 Bft) 0,00 %
30.06.2015 21:00 21,0 C 61 % 1018,2 hPa 0,0 l/m 0,1 km/h (0 Bft) O-SO 0,00 h 0,000 mm 0,0 UV-I 0 W/m 13,3 C 21,0 C 0,3 km/h (0 Bft) 0,00 %
30.06.2015 22:00 18,7 C 73 % 1018,8 hPa 0,0 l/m 0,0 km/h (0 Bft) N 0,00 h 0,000 mm 0,0 UV-I 0 W/m 13,7 C 18,7 C 0,0 km/h (0 Bft) 0,00 %
30.06.2015 23:00 17,0 C 82 % 1019,5 hPa 0,0 l/m 0,0 km/h (0 Bft) N 0,00 h 0,000 mm 0,0 UV-I 0 W/m 13,9 C 17,0 C 0,0 km/h (0 Bft) 0,00 %
01.07.2015 00:00 16,0 C 85 % 1019,5 hPa 0,0 l/m 0,0 km/h (0 Bft) N 0,00 h 0,000 mm 0,0 UV-I 0 W/m 13,5 C 16,0 C 0,0 km/h (0 Bft) 0,00 %
01.07.2015 01:00 16,0 C 87 % 1019,4 hPa 0,0 l/m 0,1 km/h (0 Bft) N 0,00 h 0,000 mm 0,0 UV-I 0 W/m 13,8 C 16,0 C 0,7 km/h (0 Bft) 0,00 %
01.07.2015 02:00 15,1 C 90 % 1019,6 hPa 0,0 l/m 0,0 km/h (0 Bft) N 0,00 h 0,000 mm 0,0 UV-I 0 W/m 13,4 C 15,1 C 0,0 km/h (0 Bft) 0,00 %
01.07.2015 03:00 14,1 C 93 % 1019,6 hPa 0,0 l/m 0,0 km/h (0 Bft) N 0,00 h 0,000 mm 0,0 UV-I 0 W/m 13,1 C 14,1 C 0,0 km/h (0 Bft) 0,00 %
01.07.2015 04:00 13,7 C 96 % 1019,8 hPa 0,0 l/m 0,0 km/h (0 Bft) N 0,00 h 0,000 mm 0,0 UV-I 0 W/m 13,0 C 13,7 C 0,0 km/h (0 Bft) 0,00 %
01.07.2015 05:00 13,3 C 96 % 1020,0 hPa 0,0 l/m 0,0 km/h (0 Bft) N 0,25 h 0,000 mm 0,0 UV-I 41 W/m 12,7 C 13,3 C 0,0 km/h (0 Bft) 0,00 %
01.07.2015 06:00 17,1 C 81 % 1019,8 hPa 0,0 l/m 0,0 km/h (0 Bft) N 1,00 h 0,000 mm 1,0 UV-I 236 W/m 13,8 C 17,1 C 0,0 km/h (0 Bft) 0,00 %
01.07.2015 07:00 19,5 C 72 % 1019,6 hPa 0,0 l/m 1,2 km/h (1 Bft) O-NO 1,00 h 0,000 mm 1,0 UV-I 400 W/m 14,2 C 19,5 C 3,3 km/h (1 Bft) 0,00 %
01.07.2015 08:00 21,3 C 63 % 1019,7 hPa 0,0 l/m 1,3 km/h (1 Bft) O 1,00 h 0,000 mm 1,7 UV-I 484 W/m 14,0 C 21,3 C 2,7 km/h (1 Bft) 0,00 %
01.07.2015 09:00 23,4 C 55 % 1019,5 hPa 0,0 l/m 1,0 km/h (0 Bft) NO 1,00 h 0,000 mm 2,3 UV-I 584 W/m 14,0 C 23,4 C 2,7 km/h (1 Bft) 0,00 %
01.07.2015 10:00 24,4 C 52 % 1019,3 hPa 0,0 l/m 2,9 km/h (1 Bft) NO 1,00 h 0,000 mm 3,4 UV-I 695 W/m 14,0 C 24,3 C 5,3 km/h (1 Bft) 0,00 %
01.07.2015 11:00 25,5 C 49 % 1019,1 hPa 0,0 l/m 3,6 km/h (1 Bft) O-NO 1,00 h 0,000 mm 4,5 UV-I 783 W/m 14,1 C 25,5 C 6,6 km/h (2 Bft) 0,00 %
01.07.2015 12:00 26,3 C 45 % 1018,6 hPa 0,0 l/m 3,7 km/h (1 Bft) O-NO 1,00 h 0,000 mm 5,4 UV-I 844 W/m 13,3 C 26,3 C 6,6 km/h (2 Bft) 0,00 %
01.07.2015 13:00 26,8 C 42 % 1018,0 hPa 0,0 l/m 4,7 km/h (1 Bft) O-SO 1,00 h 0,000 mm 5,0 UV-I 890 W/m 12,7 C 26,8 C 8,2 km/h (2 Bft) 0,00 %
01.07.2015 14:00 27,6 C 38 % 1017,6 hPa 0,0 l/m 5,6 km/h (1 Bft) O 1,00 h 0,000 mm 5,0 UV-I 933 W/m 11,8 C 27,5 C 8,6 km/h (2 Bft) 0,00 %
01.07.2015 15:00 28,1 C 37 % 1017,3 hPa 0,0 l/m 3,6 km/h (1 Bft) NO 1,00 h 0,000 mm 4,2 UV-I 936 W/m 12,1 C 28,0 C 6,3 km/h (2 Bft) 0,00 %
01.07.2015 16:00 28,2 C 36 % 1017,0 hPa 0,0 l/m 3,4 km/h (1 Bft) NO 1,00 h 0,000 mm 3,3 UV-I 897 W/m 11,6 C 28,2 C 6,3 km/h (2 Bft) 0,00 %
01.07.2015 17:00 28,1 C 35 % 1016,7 hPa 0,0 l/m 4,1 km/h (1 Bft) O 1,00 h 0,000 mm 1,7 UV-I 834 W/m 11,0 C 28,0 C 6,9 km/h (2 Bft) 0,00 %
01.07.2015 18:00 28,0 C 38 % 1016,5 hPa 0,0 l/m 5,2 km/h (1 Bft) O-SO 1,00 h 0,000 mm 1,0 UV-I 697 W/m 12,4 C 27,8 C 8,3 km/h (2 Bft) 0,00 %
01.07.2015 19:00 27,0 C 42 % 1016,7 hPa 0,0 l/m 1,4 km/h (1 Bft) O-SO 1,00 h 0,000 mm 1,0 UV-I 427 W/m 13,1 C 27,0 C 4,0 km/h (1 Bft) 0,00 %
01.07.2015 20:00 25,0 C 49 % 1017,2 hPa 0,0 l/m 0,3 km/h (0 Bft) S 0,42 h 0,000 mm 0,0 UV-I 67 W/m 13,6 C 25,0 C 1,3 km/h (1 Bft) 0,00 %
01.07.2015 21:00 21,7 C 61 % 1018,1 hPa 0,0 l/m 0,8 km/h (0 Bft) O-SO 0,00 h 0,000 mm 0,0 UV-I 0 W/m 13,9 C 21,6 C 2,3 km/h (1 Bft) 0,00 %
01.07.2015 22:00 20,3 C 68 % 1018,8 hPa 0,0 l/m 0,2 km/h (0 Bft) O-SO 0,00 h 0,000 mm 0,0 UV-I 0 W/m 14,2 C 20,3 C 0,3 km/h (0 Bft) 0,00 %
01.07.2015 23:00 19,2 C 72 % 1019,0 hPa 0,0 l/m 0,0 km/h (0 Bft) N 0,00 h 0,000 mm 0,0 UV-I 0 W/m 14,0 C 19,2 C 0,0 km/h (0 Bft) 0,00 %
02.07.2015 00:00 18,6 C 74 % 1019,3 hPa 0,0 l/m 0,0 km/h (0 Bft) N 0,00 h 0,000 mm 0,0 UV-I 0 W/m 13,8 C 18,6 C 0,0 km/h (0 Bft) 0,00 %
02.07.2015 01:00 17,7 C 76 % 1019,7 hPa 0,0 l/m 0,0 km/h (0 Bft) N 0,00 h 0,000 mm 0,0 UV-I 0 W/m 13,5 C 17,7 C 0,0 km/h (0 Bft) 0,00 %
02.07.2015 02:00 17,3 C 77 % 1019,9 hPa 0,0 l/m 0,0 km/h (0 Bft) N 0,00 h 0,000 mm 0,0 UV-I 0 W/m 13,2 C 17,3 C 0,3 km/h (0 Bft) 0,00 %
02.07.2015 03:00 16,7 C 78 % 1020,2 hPa 0,0 l/m 0,0 km/h (0 Bft) N 0,00 h 0,000 mm 0,0 UV-I 0 W/m 12,9 C 16,7 C 0,0 km/h (0 Bft) 0,00 %
02.07.2015 04:00 15,8 C 81 % 1020,4 hPa 0,0 l/m 0,0 km/h (0 Bft) N 0,00 h 0,000 mm 0,0 UV-I 0 W/m 12,5 C 15,8 C 0,3 km/h (0 Bft) 0,00 %
02.07.2015 05:00 15,4 C 81 % 1020,7 hPa 0,0 l/m 0,0 km/h (0 Bft) N 0,50 h 0,000 mm 0,0 UV-I 44 W/m 12,2 C 15,4 C 0,0 km/h (0 Bft) 0,00 %
02.07.2015 06:00 19,2 C 67 % 1020,6 hPa 0,0 l/m 0,0 km/h (0 Bft) N 1,00 h 0,000 mm 1,0 UV-I 275 W/m 12,8 C 19,2 C 0,0 km/h (0 Bft) 0,00 %
02.07.2015 07:00 21,0 C 59 % 1020,6 hPa 0,0 l/m 2,0 km/h (1 Bft) SO 1,00 h 0,000 mm 1,0 UV-I 421 W/m 12,6 C 21,0 C 4,3 km/h (1 Bft) 0,00 %
02.07.2015 08:00 22,4 C 53 % 1020,8 hPa 0,0 l/m 3,3 km/h (1 Bft) O-SO 1,00 h 0,000 mm 1,6 UV-I 483 W/m 12,3 C 22,3 C 6,0 km/h (2 Bft) 0,00 %
02.07.2015 09:00 23,6 C 51 % 1020,7 hPa 0,0 l/m 4,6 km/h (1 Bft) O-SO 1,00 h 0,000 mm 2,2 UV-I 582 W/m 12,9 C 23,5 C 8,6 km/h (2 Bft) 0,00 %
02.07.2015 10:00 25,0 C 49 % 1020,5 hPa 0,0 l/m 5,5 km/h (1 Bft) O 1,00 h 0,000 mm 3,3 UV-I 694 W/m 13,5 C 24,8 C 8,9 km/h (2 Bft) 0,00 %
02.07.2015 11:00 25,9 C 48 % 1020,4 hPa 0,0 l/m 6,4 km/h (2 Bft) O-SO 1,00 h 0,000 mm 4,5 UV-I 774 W/m 13,8 C 25,7 C 9,6 km/h (2 Bft) 0,00 %
02.07.2015 12:00 26,5 C 46 % 1020,2 hPa 0,0 l/m 5,8 km/h (2 Bft) O-SO 1,00 h 0,000 mm 5,3 UV-I 833 W/m 13,9 C 26,3 C 8,9 km/h (2 Bft) 0,00 %
02.07.2015 13:00 26,8 C 46 % 1019,9 hPa 0,0 l/m 7,7 km/h (2 Bft) O 1,00 h 0,000 mm 5,1 UV-I 880 W/m 14,1 C 26,3 C 11,9 km/h (2 Bft) 0,00 %
02.07.2015 14:00 27,7 C 44 % 1019,5 hPa 0,0 l/m 6,3 km/h (2 Bft) O 1,00 h 0,000 mm 5,0 UV-I 927 W/m 14,4 C 27,5 C 10,9 km/h (2 Bft) 0,00 %
02.07.2015 15:00 28,4 C 42 % 1019,1 hPa 0,0 l/m 5,9 km/h (2 Bft) O 1,00 h 0,000 mm 4,3 UV-I 937 W/m 14,3 C 28,3 C 8,3 km/h (2 Bft) 0,00 %
02.07.2015 16:00 28,6 C 41 % 1018,9 hPa 0,0 l/m 5,4 km/h (1 Bft) O 1,00 h 0,000 mm 3,4 UV-I 899 W/m 14,2 C 28,5 C 8,2 km/h (2 Bft) 0,00 %
02.07.2015 17:00 28,7 C 41 % 1018,7 hPa 0,0 l/m 5,0 km/h (1 Bft) O 1,00 h 0,000 mm 1,9 UV-I 821 W/m 14,2 C 28,6 C 7,9 km/h (2 Bft) 0,00 %
02.07.2015 18:00 28,3 C 43 % 1018,8 hPa 0,0 l/m 6,4 km/h (2 Bft) O 1,00 h 0,000 mm 1,0 UV-I 668 W/m 14,3 C 28,2 C 9,9 km/h (2 Bft) 0,00 %
02.07.2015 19:00 27,6 C 46 % 1019,0 hPa 0,0 l/m 3,3 km/h (1 Bft) O-NO 1,00 h 0,000 mm 1,0 UV-I 404 W/m 14,8 C 27,5 C 5,9 km/h (2 Bft) 0,00 %
02.07.2015 20:00 25,5 C 53 % 1019,6 hPa 0,0 l/m 1,7 km/h (1 Bft) O-SO 0,42 h 0,000 mm 0,0 UV-I 69 W/m 15,1 C 25,5 C 3,3 km/h (1 Bft) 0,00 %
02.07.2015 21:00 23,4 C 60 % 1020,7 hPa 0,0 l/m 2,0 km/h (1 Bft) O 0,00 h 0,000 mm 0,0 UV-I 0 W/m 15,1 C 23,4 C 4,3 km/h (1 Bft) 0,00 %
02.07.2015 22:00 22,1 C 62 % 1021,3 hPa 0,0 l/m 1,1 km/h (0 Bft) SO 0,00 h 0,000 mm 0,0 UV-I 0 W/m 14,5 C 22,1 C 2,0 km/h (1 Bft) 0,00 %
02.07.2015 23:00 20,5 C 66 % 1022,0 hPa 0,0 l/m 0,3 km/h (0 Bft) O-SO 0,00 h 0,000 mm 0,0 UV-I 0 W/m 14,0 C 20,5 C 0,3 km/h (0 Bft) 0,00 %
03.07.2015 00:00 19,4 C 69 % 1022,1 hPa 0,0 l/m 0,0 km/h (0 Bft) N 0,00 h 0,000 mm 0,0 UV-I 0 W/m 13,6 C 19,4 C 0,0 km/h (0 Bft) 0,00 %
03.07.2015 01:00 19,0 C 65 % 1022,3 hPa 0,0 l/m 0,8 km/h (0 Bft) O-SO 0,00 h 0,000 mm 0,0 UV-I 0 W/m 12,2 C 19,0 C 2,0 km/h (1 Bft) 0,00 %
03.07.2015 02:00 18,0 C 66 % 1022,6 hPa 0,0 l/m 0,1 km/h (0 Bft) N 0,00 h 0,000 mm 0,0 UV-I 0 W/m 11,5 C 18,0 C 0,7 km/h (0 Bft) 0,00 %
03.07.2015 03:00 16,8 C 72 % 1023,0 hPa 0,0 l/m 0,0 km/h (0 Bft) N 0,00 h 0,000 mm 0,0 UV-I 0 W/m 11,7 C 16,8 C 0,0 km/h (0 Bft) 0,00 %
03.07.2015 04:00 15,5 C 77 % 1023,3 hPa 0,0 l/m 0,0 km/h (0 Bft) N 0,00 h 0,000 mm 0,0 UV-I 0 W/m 11,6 C 15,5 C 0,0 km/h (0 Bft) 0,00 %
03.07.2015 05:00 15,0 C 81 % 1024,1 hPa 0,0 l/m 0,0 km/h (0 Bft) N 0,17 h 0,000 mm 0,0 UV-I 31 W/m 11,7 C 15,0 C 0,0 km/h (0 Bft) 0,00 %
03.07.2015 06:00 19,4 C 65 % 1023,9 hPa 0,0 l/m 0,0 km/h (0 Bft) N 1,00 h 0,000 mm 1,0 UV-I 247 W/m 12,6 C 19,4 C 0,0 km/h (0 Bft) 0,00 %
03.07.2015 07:00 22,5 C 55 % 1023,8 hPa 0,0 l/m 1,3 km/h (1 Bft) O 1,00 h 0,000 mm 1,0 UV-I 413 W/m 13,1 C 22,5 C 2,6 km/h (1 Bft) 0,00 %
03.07.2015 08:00 23,3 C 53 % 1023,8 hPa 0,0 l/m 4,3 km/h (1 Bft) O-SO 1,00 h 0,000 mm 1,7 UV-I 480 W/m 13,0 C 23,2 C 7,3 km/h (2 Bft) 0,00 %
03.07.2015 09:00 25,1 C 48 % 1023,6 hPa 0,0 l/m 2,8 km/h (1 Bft) O-NO 1,00 h 0,000 mm 2,2 UV-I 583 W/m 13,3 C 25,0 C 5,0 km/h (1 Bft) 0,00 %
03.07.2015 10:00 26,3 C 47 % 1023,3 hPa 0,0 l/m 2,2 km/h (1 Bft) O 1,00 h 0,000 mm 3,2 UV-I 703 W/m 13,9 C 26,2 C 4,6 km/h (1 Bft) 0,00 %
03.07.2015 11:00 27,5 C 47 % 1023,2 hPa 0,0 l/m 2,7 km/h (1 Bft) O-SO 1,00 h 0,000 mm 4,5 UV-I 792 W/m 15,1 C 27,4 C 4,0 km/h (1 Bft) 0,00 %
03.07.2015 12:00 27,9 C 47 % 1022,9 hPa 0,0 l/m 1,6 km/h (1 Bft) N-NO 1,00 h 0,000 mm 5,1 UV-I 857 W/m 15,6 C 27,9 C 3,3 km/h (1 Bft) 0,00 %
03.07.2015 13:00 28,8 C 45 % 1022,7 hPa 0,0 l/m 4,1 km/h (1 Bft) O-NO 1,00 h 0,000 mm 5,1 UV-I 911 W/m 15,7 C 28,8 C 6,6 km/h (2 Bft) 0,00 %
03.07.2015 14:00 30,0 C 40 % 1022,3 hPa 0,0 l/m 1,3 km/h (1 Bft) NO 1,00 h 0,000 mm 5,0 UV-I 963 W/m 14,7 C 30,0 C 3,0 km/h (1 Bft) 0,00 %
03.07.2015 15:00 31,1 C 33 % 1021,8 hPa 0,0 l/m 1,0 km/h (0 Bft) SO 1,00 h 0,000 mm 4,2 UV-I 979 W/m 12,8 C 31,1 C 2,3 km/h (1 Bft) 0,00 %
03.07.2015 16:00 31,1 C 32 % 1021,2 hPa 0,0 l/m 3,1 km/h (1 Bft) O-SO 1,00 h 0,000 mm 3,3 UV-I 940 W/m 12,3 C 31,1 C 5,0 km/h (1 Bft) 0,00 %
03.07.2015 17:00 30,6 C 36 % 1020,8 hPa 0,0 l/m 1,7 km/h (1 Bft) O 1,00 h 0,000 mm 1,5 UV-I 695 W/m 13,8 C 30,5 C 4,3 km/h (1 Bft) 0,00 %
03.07.2015 18:00 30,2 C 39 % 1020,6 hPa 0,0 l/m 3,1 km/h (1 Bft) O-SO 1,00 h 0,000 mm 1,0 UV-I 633 W/m 14,8 C 30,2 C 5,3 km/h (1 Bft) 0,00 %
03.07.2015 19:00 29,1 C 44 % 1020,7 hPa 0,0 l/m 2,8 km/h (1 Bft) O 0,67 h 0,000 mm 1,0 UV-I 211 W/m 15,5 C 29,1 C 4,6 km/h (1 Bft) 0,00 %
03.07.2015 20:00 26,3 C 52 % 1021,3 hPa 0,0 l/m 0,2 km/h (0 Bft) O-SO 0,25 h 0,000 mm 0,0 UV-I 34 W/m 15,5 C 26,3 C 1,0 km/h (0 Bft) 0,00 %
03.07.2015 21:00 23,5 C 62 % 1022,1 hPa 0,0 l/m 0,3 km/h (0 Bft) O-NO 0,00 h 0,000 mm 0,0 UV-I 0 W/m 15,6 C 23,5 C 1,0 km/h (0 Bft) 0,00 %
03.07.2015 22:00 22,1 C 66 % 1022,6 hPa 0,0 l/m 0,8 km/h (0 Bft) O-SO 0,00 h 0,000 mm 0,0 UV-I 0 W/m 15,5 C 22,1 C 2,6 km/h (1 Bft) 0,00 %
03.07.2015 23:00 21,5 C 68 % 1022,8 hPa 0,0 l/m 1,0 km/h (0 Bft) O-SO 0,00 h 0,000 mm 0,0 UV-I 0 W/m 15,3 C 21,5 C 2,0 km/h (1 Bft) 0,00 %
04.07.2015 00:00 21,0 C 68 % 1023,1 hPa 0,0 l/m 0,3 km/h (0 Bft) SO 0,00 h 0,000 mm 0,0 UV-I 0 W/m 14,9 C 21,0 C 1,3 km/h (1 Bft) 0,00 %
04.07.2015 01:00 19,6 C 74 % 1023,1 hPa 0,0 l/m 0,0 km/h (0 Bft) N 0,00 h 0,000 mm 0,0 UV-I 0 W/m 14,9 C 19,6 C 0,0 km/h (0 Bft) 0,00 %
04.07.2015 02:00 18,7 C 78 % 1022,9 hPa 0,0 l/m 0,1 km/h (0 Bft) N 0,00 h 0,000 mm 0,0 UV-I 0 W/m 14,8 C 18,7 C 0,7 km/h (0 Bft) 0,00 %
04.07.2015 03:00 16,7 C 86 % 1023,2 hPa 0,0 l/m 0,0 km/h (0 Bft) N 0,00 h 0,000 mm 0,0 UV-I 0 W/m 14,3 C 16,7 C 0,0 km/h (0 Bft) 0,00 %
04.07.2015 04:00 16,1 C 89 % 1023,0 hPa 0,0 l/m 0,0 km/h (0 Bft) N 0,00 h 0,000 mm 0,0 UV-I 0 W/m 14,3 C 16,1 C 0,3 km/h (0 Bft) 0,00 %
04.07.2015 05:00 15,6 C 90 % 1022,5 hPa 0,0 l/m 0,0 km/h (0 Bft) N 0,50 h 0,000 mm 0,0 UV-I 33 W/m 14,0 C 15,6 C 0,0 km/h (0 Bft) 0,00 %
04.07.2015 06:00 19,1 C 75 % 1021,1 hPa 0,0 l/m 0,0 km/h (0 Bft) N 1,00 h 0,000 mm 1,0 UV-I 237 W/m 14,5 C 19,1 C 0,0 km/h (0 Bft) 0,00 %
04.07.2015 07:00 22,0 C 64 % 1020,7 hPa 0,0 l/m 0,0 km/h (0 Bft) N 1,00 h 0,000 mm 1,0 UV-I 403 W/m 14,8 C 22,0 C 0,0 km/h (0 Bft) 0,00 %
04.07.2015 08:00 24,5 C 57 % 1021,0 hPa 0,0 l/m 0,5 km/h (0 Bft) NO 1,00 h 0,000 mm 1,8 UV-I 503 W/m 15,4 C 24,5 C 1,0 km/h (0 Bft) 0,00 %
04.07.2015 09:00 25,9 C 54 % 1020,8 hPa 0,0 l/m 1,3 km/h (1 Bft) O-NO 1,00 h 0,000 mm 2,5 UV-I 619 W/m 15,9 C 25,9 C 2,3 km/h (1 Bft) 0,00 %
04.07.2015 10:00 27,1 C 53 % 1020,6 hPa 0,0 l/m 1,0 km/h (0 Bft) O-SO 1,00 h 0,000 mm 3,5 UV-I 732 W/m 16,6 C 27,1 C 2,7 km/h (1 Bft) 0,00 %
04.07.2015 11:00 28,5 C 49 % 1020,1 hPa 0,0 l/m 3,1 km/h (1 Bft) O 1,00 h 0,000 mm 4,9 UV-I 814 W/m 16,7 C 28,5 C 5,6 km/h (1 Bft) 0,00 %
04.07.2015 12:00 29,7 C 41 % 1019,5 hPa 0,0 l/m 2,8 km/h (1 Bft) O-SO 1,00 h 0,000 mm 5,6 UV-I 878 W/m 15,0 C 29,6 C 5,3 km/h (1 Bft) 0,00 %
04.07.2015 13:00 30,4 C 35 % 1019,0 hPa 0,0 l/m 3,9 km/h (1 Bft) O 1,00 h 0,000 mm 5,3 UV-I 929 W/m 13,0 C 30,3 C 6,3 km/h (2 Bft) 0,00 %
04.07.2015 14:00 31,3 C 28 % 1018,4 hPa 0,0 l/m 1,2 km/h (1 Bft) NO 1,00 h 0,000 mm 5,0 UV-I 976 W/m 10,6 C 31,3 C 2,7 km/h (1 Bft) 0,00 %
04.07.2015 15:00 32,3 C 26 % 1018,0 hPa 0,0 l/m 1,9 km/h (1 Bft) O-SO 1,00 h 0,000 mm 4,2 UV-I 969 W/m 10,4 C 32,3 C 3,3 km/h (1 Bft) 0,00 %
04.07.2015 16:00 32,8 C 25 % 1017,5 hPa 0,0 l/m 0,6 km/h (0 Bft) O 1,00 h 0,000 mm 3,2 UV-I 919 W/m 10,2 C 32,8 C 1,3 km/h (1 Bft) 0,00 %
04.07.2015 17:00 32,7 C 28 % 1017,1 hPa 0,0 l/m 0,6 km/h (0 Bft) O-NO 1,00 h 0,000 mm 1,7 UV-I 790 W/m 11,6 C 32,7 C 1,7 km/h (1 Bft) 0,00 %
04.07.2015 18:00 32,6 C 30 % 1016,7 hPa 0,0 l/m 0,2 km/h (0 Bft) O-SO 1,00 h 0,000 mm 1,0 UV-I 533 W/m 12,7 C 32,6 C 0,7 km/h (0 Bft) 0,00 %
04.07.2015 19:00 31,7 C 37 % 1016,8 hPa 0,0 l/m 0,1 km/h (0 Bft) O-SO 0,67 h 0,000 mm 1,0 UV-I 155 W/m 14,9 C 31,7 C 0,3 km/h (0 Bft) 0,00 %
04.07.2015 20:00 28,1 C 47 % 1017,2 hPa 0,0 l/m 0,4 km/h (0 Bft) O-NO 0,00 h 0,000 mm 0,0 UV-I 12 W/m 15,6 C 28,1 C 1,7 km/h (1 Bft) 0,00 %
04.07.2015 21:00 25,4 C 54 % 1017,8 hPa 0,0 l/m 1,6 km/h (1 Bft) O-SO 0,00 h 0,000 mm 0,0 UV-I 0 W/m 15,4 C 25,4 C 3,3 km/h (1 Bft) 0,00 %
04.07.2015 22:00 24,2 C 56 % 1018,0 hPa 0,0 l/m 0,6 km/h (0 Bft) O-SO 0,00 h 0,000 mm 0,0 UV-I 0 W/m 14,7 C 24,2 C 1,3 km/h (1 Bft) 0,00 %
04.07.2015 23:00 22,1 C 67 % 1018,4 hPa 0,0 l/m 0,0 km/h (0 Bft) N 0,00 h 0,000 mm 0,0 UV-I 0 W/m 15,6 C 22,1 C 0,0 km/h (0 Bft) 0,00 %
05.07.2015 00:00 19,9 C 77 % 1018,7 hPa 0,0 l/m 0,0 km/h (0 Bft) N 0,00 h 0,000 mm 0,0 UV-I 0 W/m 15,7 C 19,9 C 0,0 km/h (0 Bft) 0,00 %
05.07.2015 01:00 18,8 C 82 % 1018,8 hPa 0,0 l/m 0,0 km/h (0 Bft) N 0,00 h 0,000 mm 0,0 UV-I 0 W/m 15,7 C 18,8 C 0,0 km/h (0 Bft) 0,00 %
05.07.2015 02:00 17,8 C 85 % 1019,1 hPa 0,0 l/m 0,0 km/h (0 Bft) N 0,00 h 0,000 mm 0,0 UV-I 0 W/m 15,2 C 17,8 C 0,0 km/h (0 Bft) 0,00 %
05.07.2015 03:00 17,1 C 85 % 1019,2 hPa 0,0 l/m 0,0 km/h (0 Bft) N 0,00 h 0,000 mm 0,0 UV-I 0 W/m 14,6 C 17,1 C 0,0 km/h (0 Bft) 0,00 %
05.07.2015 04:00 16,3 C 87 % 1019,3 hPa 0,0 l/m 0,0 km/h (0 Bft) N 0,00 h 0,000 mm 0,0 UV-I 0 W/m 14,0 C 16,3 C 0,0 km/h (0 Bft) 0,00 %
05.07.2015 05:00 16,0 C 86 % 1019,0 hPa 0,0 l/m 0,0 km/h (0 Bft) N 0,08 h 0,000 mm 0,0 UV-I 23 W/m 13,7 C 16,0 C 0,0 km/h (0 Bft) 0,00 %
05.07.2015 06:00 19,0 C 75 % 1018,6 hPa 0,0 l/m 0,0 km/h (0 Bft) N 1,00 h 0,000 mm 1,0 UV-I 193 W/m 14,4 C 19,0 C 0,0 km/h (0 Bft) 0,00 %
05.07.2015 07:00 23,5 C 58 % 1018,0 hPa 0,0 l/m 0,0 km/h (0 Bft) N 1,00 h 0,000 mm 1,0 UV-I 384 W/m 14,7 C 23,5 C 0,0 km/h (0 Bft) 0,00 %
05.07.2015 08:00 25,7 C 52 % 1017,6 hPa 0,0 l/m 0,3 km/h (0 Bft) N-NO 1,00 h 0,000 mm 1,7 UV-I 468 W/m 14,9 C 25,7 C 1,0 km/h (0 Bft) 0,00 %
05.07.2015 09:00 27,6 C 48 % 1017,2 hPa 0,0 l/m 0,2 km/h (0 Bft) N 1,00 h 0,000 mm 2,3 UV-I 581 W/m 15,5 C 27,6 C 1,3 km/h (1 Bft) 0,00 %
05.07.2015 10:00 29,5 C 44 % 1016,5 hPa 0,0 l/m 0,4 km/h (0 Bft) O-NO 1,00 h 0,000 mm 3,3 UV-I 706 W/m 16,1 C 29,5 C 1,0 km/h (0 Bft) 0,00 %
05.07.2015 11:00 30,6 C 42 % 1016,0 hPa 0,0 l/m 1,0 km/h (0 Bft) O-SO 1,00 h 0,000 mm 4,6 UV-I 804 W/m 16,2 C 30,6 C 2,7 km/h (1 Bft) 0,00 %
05.07.2015 12:00 31,4 C 41 % 1015,5 hPa 0,0 l/m 0,4 km/h (0 Bft) O 1,00 h 0,000 mm 5,1 UV-I 869 W/m 16,4 C 31,4 C 1,0 km/h (0 Bft) 0,00 %
05.07.2015 13:00 32,0 C 38 % 1014,8 hPa 0,0 l/m 0,5 km/h (0 Bft) O 1,00 h 0,000 mm 5,0 UV-I 858 W/m 15,9 C 32,0 C 1,3 km/h (1 Bft) 0,00 %
05.07.2015 14:00 33,0 C 34 % 1014,0 hPa 0,0 l/m 0,1 km/h (0 Bft) O 1,00 h 0,000 mm 4,9 UV-I 957 W/m 14,9 C 33,0 C 0,7 km/h (0 Bft) 0,00 %
05.07.2015 15:00 33,5 C 31 % 1013,3 hPa 0,0 l/m 2,3 km/h (1 Bft) O-NO 1,00 h 0,000 mm 4,0 UV-I 953 W/m 13,9 C 33,5 C 4,6 km/h (1 Bft) 0,00 %
05.07.2015 16:00 33,7 C 28 % 1012,9 hPa 0,0 l/m 1,1 km/h (0 Bft) O 1,00 h 0,000 mm 3,0 UV-I 918 W/m 12,2 C 33,7 C 2,7 km/h (1 Bft) 0,00 %
05.07.2015 17:00 33,3 C 28 % 1012,3 hPa 0,0 l/m 1,6 km/h (1 Bft) O-SO 1,00 h 0,000 mm 1,7 UV-I 817 W/m 12,4 C 33,3 C 3,0 km/h (1 Bft) 0,00 %
05.07.2015 18:00 33,1 C 31 % 1012,0 hPa 0,0 l/m 0,7 km/h (0 Bft) O 1,00 h 0,000 mm 1,0 UV-I 654 W/m 13,5 C 33,1 C 2,0 km/h (1 Bft) 0,00 %
05.07.2015 19:00 32,0 C 36 % 1011,8 hPa 0,0 l/m 0,5 km/h (0 Bft) O-SO 1,00 h 0,000 mm 1,0 UV-I 367 W/m 15,0 C 32,0 C 2,0 km/h (1 Bft) 0,00 %
05.07.2015 20:00 29,4 C 42 % 1011,6 hPa 0,0 l/m 0,9 km/h (0 Bft) O-NO 0,50 h 0,000 mm 0,0 UV-I 66 W/m 15,1 C 29,4 C 2,0 km/h (1 Bft) 0,00 %
05.07.2015 21:00 26,6 C 46 % 1011,9 hPa 0,0 l/m 1,2 km/h (1 Bft) O-SO 0,00 h 0,000 mm 0,0 UV-I 0 W/m 14,0 C 26,6 C 2,3 km/h (1 Bft) 0,00 %
05.07.2015 22:00 25,2 C 49 % 1012,0 hPa 0,0 l/m 1,5 km/h (1 Bft) O-SO 0,00 h 0,000 mm 0,0 UV-I 0 W/m 13,5 C 25,2 C 3,3 km/h (1 Bft) 0,00 %
05.07.2015 23:00 22,9 C 61 % 1012,0 hPa 0,0 l/m 0,2 km/h (0 Bft) N 0,00 h 0,000 mm 0,0 UV-I 0 W/m 14,9 C 22,9 C 0,7 km/h (0 Bft) 0,00 %
Min-Datum _ 29.06.15 05.07.15 05.07.15 - 29.06.15 - - - - - 04.07.15 29.06.15 29.06.15 29.06.15
_ Min-Zeit 05:10 16:30 20:50 - 00:00 - - - - - 14:50 05:10 00:00 00:00
Minimum _ 11,9 C 21 % 1011,4 hPa - 0,0 km/h (0 Bft) - - - - - 7,3 C 11,9 C 0,0 km/h (0 Bft) 0,00 %
Max-Datum _ 05.07.15 30.06.15 03.07.15 29.06.15 01.07.15 - 29.06.15 29.06.15 29.06.15 30.06.15 05.07.15 05.07.15 01.07.15 29.06.15
_ Max-Zeit 16:35 05:40 05:55 00:00 14:40 - 10:05 00:00 12:35 14:00 12:25 16:35 14:40 00:00
Maximum _ 34,0 C 97 % 1024,4 hPa 0,0 l/m 15,8 km/h
O (3 Bft)
- 0,08 h 0,000 mm 6,0 UV-I 1137 W/m 17,3 C 34,0 C 19,8 km/h
O (3 Bft)
0,00 %
Durchschnitt _ 22,8 C 59 % 1019,5 hPa #0,0 l/m 1,2 km/h (1 Bft) O #93:30 h #0,000 mm 2,8 UV-I 560 W/m 13,5 C 22,8 C 2,4 km/h (1 Bft) 0,00 %